sensor_id;sensor_type;location;lat;lon;timestamp;P1;durP1;ratioP1;P2;durP2;ratioP2
57225;SDS011;43082;43.568;22.256;2023-04-04T00:00:21;5.20;;;1.70;;
57225;SDS011;43082;43.568;22.256;2023-04-04T00:02:47;2.78;;;1.20;;
57225;SDS011;43082;43.568;22.256;2023-04-04T00:05:13;2.38;;;0.98;;
57225;SDS011;43082;43.568;22.256;2023-04-04T00:07:38;2.75;;;0.98;;
57225;SDS011;43082;43.568;22.256;2023-04-04T00:10:04;3.42;;;1.10;;
57225;SDS011;43082;43.568;22.256;2023-04-04T00:12:29;3.70;;;1.38;;
57225;SDS011;43082;43.568;22.256;2023-04-04T00:14:55;3.50;;;0.80;;
57225;SDS011;43082;43.568;22.256;2023-04-04T00:17:21;1.88;;;0.70;;
57225;SDS011;43082;43.568;22.256;2023-04-04T00:19:46;3.00;;;1.00;;
57225;SDS011;43082;43.568;22.256;2023-04-04T00:22:12;2.38;;;0.95;;
57225;SDS011;43082;43.568;22.256;2023-04-04T00:24:42;2.58;;;0.80;;
57225;SDS011;43082;43.568;22.256;2023-04-04T00:27:07;2.38;;;0.90;;
57225;SDS011;43082;43.568;22.256;2023-04-04T00:29:32;2.45;;;0.90;;
57225;SDS011;43082;43.568;22.256;2023-04-04T00:32:01;3.53;;;1.10;;
57225;SDS011;43082;43.568;22.256;2023-04-04T00:34:27;3.42;;;1.13;;
57225;SDS011;43082;43.568;22.256;2023-04-04T00:36:53;3.25;;;1.20;;
57225;SDS011;43082;43.568;22.256;2023-04-04T00:39:18;3.47;;;0.90;;
57225;SDS011;43082;43.568;22.256;2023-04-04T00:41:44;3.85;;;1.30;;
57225;SDS011;43082;43.568;22.256;2023-04-04T00:44:09;2.25;;;0.85;;
57225;SDS011;43082;43.568;22.256;2023-04-04T00:46:35;4.30;;;1.58;;
57225;SDS011;43082;43.568;22.256;2023-04-04T00:49:01;3.30;;;0.90;;
57225;SDS011;43082;43.568;22.256;2023-04-04T00:51:26;3.45;;;1.20;;
57225;SDS011;43082;43.568;22.256;2023-04-04T00:53:51;2.75;;;0.98;;
57225;SDS011;43082;43.568;22.256;2023-04-04T00:56:17;3.85;;;1.00;;
57225;SDS011;43082;43.568;22.256;2023-04-04T00:58:43;4.07;;;1.23;;
57225;SDS011;43082;43.568;22.256;2023-04-04T01:01:08;2.63;;;0.77;;
57225;SDS011;43082;43.568;22.256;2023-04-04T01:03:37;2.80;;;0.90;;
57225;SDS011;43082;43.568;22.256;2023-04-04T01:06:03;2.30;;;1.10;;
57225;SDS011;43082;43.568;22.256;2023-04-04T01:08:32;3.00;;;1.00;;
57225;SDS011;43082;43.568;22.256;2023-04-04T01:11:01;3.40;;;1.35;;
57225;SDS011;43082;43.568;22.256;2023-04-04T01:13:26;2.00;;;0.80;;
57225;SDS011;43082;43.568;22.256;2023-04-04T01:15:52;2.03;;;0.75;;
57225;SDS011;43082;43.568;22.256;2023-04-04T01:18:18;2.25;;;0.80;;
57225;SDS011;43082;43.568;22.256;2023-04-04T01:21:02;2.75;;;0.98;;
57225;SDS011;43082;43.568;22.256;2023-04-04T01:26:24;3.25;;;1.10;;
57225;SDS011;43082;43.568;22.256;2023-04-04T01:28:51;5.10;;;1.38;;
57225;SDS011;43082;43.568;22.256;2023-04-04T01:31:40;2.53;;;0.80;;
57225;SDS011;43082;43.568;22.256;2023-04-04T01:34:16;1.60;;;0.80;;
57225;SDS011;43082;43.568;22.256;2023-04-04T01:41:38;2.08;;;0.80;;
57225;SDS011;43082;43.568;22.256;2023-04-04T01:44:04;1.85;;;0.70;;
57225;SDS011;43082;43.568;22.256;2023-04-04T01:46:30;2.08;;;0.80;;
57225;SDS011;43082;43.568;22.256;2023-04-04T01:48:56;2.35;;;0.80;;
57225;SDS011;43082;43.568;22.256;2023-04-04T01:51:22;2.83;;;0.85;;
57225;SDS011;43082;43.568;22.256;2023-04-04T01:53:47;3.50;;;1.20;;
57225;SDS011;43082;43.568;22.256;2023-04-04T01:56:13;1.73;;;0.50;;
57225;SDS011;43082;43.568;22.256;2023-04-04T01:58:38;4.05;;;0.98;;
57225;SDS011;43082;43.568;22.256;2023-04-04T02:01:04;4.72;;;1.10;;
57225;SDS011;43082;43.568;22.256;2023-04-04T02:03:29;2.03;;;0.70;;
57225;SDS011;43082;43.568;22.256;2023-04-04T02:05:54;0.98;;;0.40;;
57225;SDS011;43082;43.568;22.256;2023-04-04T02:08:20;0.93;;;0.40;;
57225;SDS011;43082;43.568;22.256;2023-04-04T02:10:45;1.20;;;0.60;;
57225;SDS011;43082;43.568;22.256;2023-04-04T02:13:11;1.40;;;0.60;;
57225;SDS011;43082;43.568;22.256;2023-04-04T02:15:36;2.38;;;0.70;;
57225;SDS011;43082;43.568;22.256;2023-04-04T02:18:02;1.30;;;0.60;;
57225;SDS011;43082;43.568;22.256;2023-04-04T02:20:27;0.90;;;0.50;;
57225;SDS011;43082;43.568;22.256;2023-04-04T02:22:53;0.88;;;0.43;;
57225;SDS011;43082;43.568;22.256;2023-04-04T02:25:20;0.95;;;0.50;;
57225;SDS011;43082;43.568;22.256;2023-04-04T02:27:46;1.45;;;0.68;;
57225;SDS011;43082;43.568;22.256;2023-04-04T02:30:12;0.77;;;0.40;;
57225;SDS011;43082;43.568;22.256;2023-04-04T02:32:38;1.20;;;0.60;;
57225;SDS011;43082;43.568;22.256;2023-04-04T02:35:03;2.50;;;0.70;;
57225;SDS011;43082;43.568;22.256;2023-04-04T02:37:29;1.67;;;0.40;;
57225;SDS011;43082;43.568;22.256;2023-04-04T02:39:55;1.20;;;0.50;;
57225;SDS011;43082;43.568;22.256;2023-04-04T02:42:20;0.95;;;0.40;;
57225;SDS011;43082;43.568;22.256;2023-04-04T02:44:46;0.75;;;0.40;;
57225;SDS011;43082;43.568;22.256;2023-04-04T02:47:11;0.80;;;0.40;;
57225;SDS011;43082;43.568;22.256;2023-04-04T02:49:36;1.55;;;0.60;;
57225;SDS011;43082;43.568;22.256;2023-04-04T02:52:02;3.53;;;1.20;;
57225;SDS011;43082;43.568;22.256;2023-04-04T02:54:27;2.35;;;0.88;;
57225;SDS011;43082;43.568;22.256;2023-04-04T02:56:53;2.92;;;1.00;;
57225;SDS011;43082;43.568;22.256;2023-04-04T02:59:18;1.17;;;0.57;;
57225;SDS011;43082;43.568;22.256;2023-04-04T03:01:45;1.67;;;0.60;;
57225;SDS011;43082;43.568;22.256;2023-04-04T03:04:10;2.30;;;0.70;;
57225;SDS011;43082;43.568;22.256;2023-04-04T03:06:36;3.22;;;0.63;;
57225;SDS011;43082;43.568;22.256;2023-04-04T03:09:01;1.10;;;0.50;;
57225;SDS011;43082;43.568;22.256;2023-04-04T03:11:29;1.25;;;0.50;;
57225;SDS011;43082;43.568;22.256;2023-04-04T03:13:54;1.35;;;0.50;;
57225;SDS011;43082;43.568;22.256;2023-04-04T03:16:20;1.52;;;0.50;;
57225;SDS011;43082;43.568;22.256;2023-04-04T03:18:46;1.10;;;0.50;;
57225;SDS011;43082;43.568;22.256;2023-04-04T03:21:11;1.20;;;0.30;;
57225;SDS011;43082;43.568;22.256;2023-04-04T03:23:37;1.55;;;0.70;;
57225;SDS011;43082;43.568;22.256;2023-04-04T03:26:02;1.70;;;0.70;;
57225;SDS011;43082;43.568;22.256;2023-04-04T03:28:28;1.20;;;0.63;;
57225;SDS011;43082;43.568;22.256;2023-04-04T03:30:53;0.98;;;0.40;;
57225;SDS011;43082;43.568;22.256;2023-04-04T03:33:19;1.63;;;0.47;;
57225;SDS011;43082;43.568;22.256;2023-04-04T03:35:45;1.25;;;0.60;;
57225;SDS011;43082;43.568;22.256;2023-04-04T03:38:11;1.63;;;0.75;;
57225;SDS011;43082;43.568;22.256;2023-04-04T03:40:37;3.40;;;0.65;;
57225;SDS011;43082;43.568;22.256;2023-04-04T03:43:06;1.50;;;0.45;;
57225;SDS011;43082;43.568;22.256;2023-04-04T03:45:32;0.95;;;0.40;;
57225;SDS011;43082;43.568;22.256;2023-04-04T03:47:59;3.97;;;1.30;;
57225;SDS011;43082;43.568;22.256;2023-04-04T03:50:25;1.92;;;0.60;;
57225;SDS011;43082;43.568;22.256;2023-04-04T03:52:51;0.95;;;0.50;;
57225;SDS011;43082;43.568;22.256;2023-04-04T03:55:16;2.55;;;0.60;;
57225;SDS011;43082;43.568;22.256;2023-04-04T03:57:42;1.52;;;0.60;;
57225;SDS011;43082;43.568;22.256;2023-04-04T04:00:07;1.10;;;0.50;;
57225;SDS011;43082;43.568;22.256;2023-04-04T04:02:33;2.17;;;0.70;;
57225;SDS011;43082;43.568;22.256;2023-04-04T04:04:58;1.13;;;0.60;;
57225;SDS011;43082;43.568;22.256;2023-04-04T04:07:23;2.45;;;0.70;;
57225;SDS011;43082;43.568;22.256;2023-04-04T04:09:49;1.20;;;0.40;;
57225;SDS011;43082;43.568;22.256;2023-04-04T04:12:15;2.60;;;0.70;;
57225;SDS011;43082;43.568;22.256;2023-04-04T04:14:40;1.83;;;0.63;;
57225;SDS011;43082;43.568;22.256;2023-04-04T04:17:06;2.78;;;1.20;;
57225;SDS011;43082;43.568;22.256;2023-04-04T04:19:31;3.17;;;0.90;;
57225;SDS011;43082;43.568;22.256;2023-04-04T04:21:57;2.30;;;0.98;;
57225;SDS011;43082;43.568;22.256;2023-04-04T04:24:22;1.85;;;0.68;;
57225;SDS011;43082;43.568;22.256;2023-04-04T04:26:47;1.40;;;0.63;;
57225;SDS011;43082;43.568;22.256;2023-04-04T04:29:13;1.65;;;0.70;;
57225;SDS011;43082;43.568;22.256;2023-04-04T04:31:38;3.45;;;1.00;;
57225;SDS011;43082;43.568;22.256;2023-04-04T04:34:04;18.95;;;9.93;;
57225;SDS011;43082;43.568;22.256;2023-04-04T04:36:30;5.53;;;1.83;;
57225;SDS011;43082;43.568;22.256;2023-04-04T04:38:56;2.60;;;0.90;;
57225;SDS011;43082;43.568;22.256;2023-04-04T04:41:22;2.17;;;0.70;;
57225;SDS011;43082;43.568;22.256;2023-04-04T04:43:47;2.25;;;0.63;;
57225;SDS011;43082;43.568;22.256;2023-04-04T04:46:12;3.20;;;1.48;;
57225;SDS011;43082;43.568;22.256;2023-04-04T04:48:38;5.13;;;1.60;;
57225;SDS011;43082;43.568;22.256;2023-04-04T04:51:04;4.97;;;1.60;;
57225;SDS011;43082;43.568;22.256;2023-04-04T04:53:29;3.97;;;1.42;;
57225;SDS011;43082;43.568;22.256;2023-04-04T04:55:55;3.92;;;1.40;;
57225;SDS011;43082;43.568;22.256;2023-04-04T04:58:20;6.30;;;1.60;;
57225;SDS011;43082;43.568;22.256;2023-04-04T05:00:47;9.10;;;2.78;;
57225;SDS011;43082;43.568;22.256;2023-04-04T05:03:13;6.93;;;2.53;;
57225;SDS011;43082;43.568;22.256;2023-04-04T05:05:38;4.32;;;1.30;;
57225;SDS011;43082;43.568;22.256;2023-04-04T05:08:04;4.38;;;1.38;;
57225;SDS011;43082;43.568;22.256;2023-04-04T05:10:29;3.72;;;1.33;;
57225;SDS011;43082;43.568;22.256;2023-04-04T05:12:55;2.65;;;0.80;;
57225;SDS011;43082;43.568;22.256;2023-04-04T05:15:21;6.45;;;3.78;;
57225;SDS011;43082;43.568;22.256;2023-04-04T05:17:46;12.27;;;9.57;;
57225;SDS011;43082;43.568;22.256;2023-04-04T05:20:12;8.07;;;4.40;;
57225;SDS011;43082;43.568;22.256;2023-04-04T05:22:41;3.80;;;1.52;;
57225;SDS011;43082;43.568;22.256;2023-04-04T05:25:10;3.42;;;1.13;;
57225;SDS011;43082;43.568;22.256;2023-04-04T05:27:36;5.70;;;2.00;;
57225;SDS011;43082;43.568;22.256;2023-04-04T05:30:02;6.50;;;2.83;;
57225;SDS011;43082;43.568;22.256;2023-04-04T05:32:27;3.38;;;1.40;;
57225;SDS011;43082;43.568;22.256;2023-04-04T05:34:53;3.92;;;1.20;;
57225;SDS011;43082;43.568;22.256;2023-04-04T05:37:18;3.53;;;1.40;;
57225;SDS011;43082;43.568;22.256;2023-04-04T05:39:43;2.80;;;0.77;;
57225;SDS011;43082;43.568;22.256;2023-04-04T05:42:09;1.75;;;0.70;;
57225;SDS011;43082;43.568;22.256;2023-04-04T05:44:35;2.92;;;0.90;;
57225;SDS011;43082;43.568;22.256;2023-04-04T05:47:01;3.28;;;0.80;;
57225;SDS011;43082;43.568;22.256;2023-04-04T05:49:27;2.67;;;0.80;;
57225;SDS011;43082;43.568;22.256;2023-04-04T05:51:52;1.77;;;0.77;;
57225;SDS011;43082;43.568;22.256;2023-04-04T05:54:20;2.25;;;0.93;;
57225;SDS011;43082;43.568;22.256;2023-04-04T05:56:46;3.55;;;0.80;;
57225;SDS011;43082;43.568;22.256;2023-04-04T05:59:11;4.95;;;1.48;;
57225;SDS011;43082;43.568;22.256;2023-04-04T06:01:37;9.23;;;3.13;;
57225;SDS011;43082;43.568;22.256;2023-04-04T06:04:02;5.85;;;1.48;;
57225;SDS011;43082;43.568;22.256;2023-04-04T06:06:28;5.35;;;1.77;;
57225;SDS011;43082;43.568;22.256;2023-04-04T06:08:53;5.70;;;2.20;;
57225;SDS011;43082;43.568;22.256;2023-04-04T06:11:19;7.57;;;2.35;;
57225;SDS011;43082;43.568;22.256;2023-04-04T06:13:48;4.80;;;1.60;;
57225;SDS011;43082;43.568;22.256;2023-04-04T06:16:15;4.40;;;1.60;;
57225;SDS011;43082;43.568;22.256;2023-04-04T06:18:40;3.33;;;1.27;;
57225;SDS011;43082;43.568;22.256;2023-04-04T06:21:05;5.38;;;2.20;;
57225;SDS011;43082;43.568;22.256;2023-04-04T06:23:31;7.53;;;3.65;;
57225;SDS011;43082;43.568;22.256;2023-04-04T06:25:56;5.45;;;2.20;;
57225;SDS011;43082;43.568;22.256;2023-04-04T06:28:22;12.38;;;7.78;;
57225;SDS011;43082;43.568;22.256;2023-04-04T06:30:47;14.07;;;10.60;;
57225;SDS011;43082;43.568;22.256;2023-04-04T06:33:13;6.30;;;2.97;;
57225;SDS011;43082;43.568;22.256;2023-04-04T06:35:38;4.28;;;1.65;;
57225;SDS011;43082;43.568;22.256;2023-04-04T06:38:04;5.90;;;1.98;;
57225;SDS011;43082;43.568;22.256;2023-04-04T06:40:29;6.45;;;2.33;;
57225;SDS011;43082;43.568;22.256;2023-04-04T06:42:55;8.18;;;3.22;;
57225;SDS011;43082;43.568;22.256;2023-04-04T06:45:22;12.73;;;7.65;;
57225;SDS011;43082;43.568;22.256;2023-04-04T06:47:48;22.98;;;15.75;;
57225;SDS011;43082;43.568;22.256;2023-04-04T06:50:15;18.30;;;10.38;;
57225;SDS011;43082;43.568;22.256;2023-04-04T06:52:41;15.13;;;9.80;;
57225;SDS011;43082;43.568;22.256;2023-04-04T06:55:07;14.27;;;9.15;;
57225;SDS011;43082;43.568;22.256;2023-04-04T06:57:32;11.32;;;7.47;;
57225;SDS011;43082;43.568;22.256;2023-04-04T06:59:57;7.82;;;3.83;;
57225;SDS011;43082;43.568;22.256;2023-04-04T07:02:23;8.82;;;4.90;;
57225;SDS011;43082;43.568;22.256;2023-04-04T07:04:48;7.65;;;3.97;;
57225;SDS011;43082;43.568;22.256;2023-04-04T07:07:14;8.55;;;4.07;;
57225;SDS011;43082;43.568;22.256;2023-04-04T07:09:40;13.77;;;7.93;;
57225;SDS011;43082;43.568;22.256;2023-04-04T07:12:06;12.10;;;7.90;;
57225;SDS011;43082;43.568;22.256;2023-04-04T07:14:31;11.15;;;7.28;;
57225;SDS011;43082;43.568;22.256;2023-04-04T07:16:57;11.15;;;7.35;;
57225;SDS011;43082;43.568;22.256;2023-04-04T07:19:22;13.20;;;8.35;;
57225;SDS011;43082;43.568;22.256;2023-04-04T07:21:52;10.93;;;6.80;;
57225;SDS011;43082;43.568;22.256;2023-04-04T07:24:18;11.15;;;7.43;;
57225;SDS011;43082;43.568;22.256;2023-04-04T07:26:43;10.40;;;6.18;;
57225;SDS011;43082;43.568;22.256;2023-04-04T07:29:09;11.70;;;7.20;;
57225;SDS011;43082;43.568;22.256;2023-04-04T07:31:34;11.32;;;7.07;;
57225;SDS011;43082;43.568;22.256;2023-04-04T07:34:00;14.68;;;8.52;;
57225;SDS011;43082;43.568;22.256;2023-04-04T07:36:26;12.88;;;7.78;;
57225;SDS011;43082;43.568;22.256;2023-04-04T07:38:51;10.63;;;6.60;;
57225;SDS011;43082;43.568;22.256;2023-04-04T07:41:16;13.30;;;7.47;;
57225;SDS011;43082;43.568;22.256;2023-04-04T07:43:42;15.02;;;8.32;;
57225;SDS011;43082;43.568;22.256;2023-04-04T07:46:07;11.95;;;7.60;;
57225;SDS011;43082;43.568;22.256;2023-04-04T07:48:33;12.85;;;8.32;;
57225;SDS011;43082;43.568;22.256;2023-04-04T07:51:01;12.10;;;7.68;;
57225;SDS011;43082;43.568;22.256;2023-04-04T07:53:27;12.38;;;7.40;;
57225;SDS011;43082;43.568;22.256;2023-04-04T07:55:52;11.88;;;7.82;;
57225;SDS011;43082;43.568;22.256;2023-04-04T07:58:18;11.40;;;6.88;;
57225;SDS011;43082;43.568;22.256;2023-04-04T08:00:43;11.05;;;6.75;;
57225;SDS011;43082;43.568;22.256;2023-04-04T08:03:09;12.88;;;7.90;;
57225;SDS011;43082;43.568;22.256;2023-04-04T08:05:34;9.18;;;5.10;;
57225;SDS011;43082;43.568;22.256;2023-04-04T08:08:00;11.63;;;6.63;;
57225;SDS011;43082;43.568;22.256;2023-04-04T08:10:25;10.57;;;5.75;;
57225;SDS011;43082;43.568;22.256;2023-04-04T08:12:51;11.73;;;6.88;;
57225;SDS011;43082;43.568;22.256;2023-04-04T08:15:17;21.23;;;9.35;;
57225;SDS011;43082;43.568;22.256;2023-04-04T08:17:42;9.60;;;5.57;;
57225;SDS011;43082;43.568;22.256;2023-04-04T08:20:08;14.20;;;7.03;;
57225;SDS011;43082;43.568;22.256;2023-04-04T08:22:34;16.15;;;9.43;;
57225;SDS011;43082;43.568;22.256;2023-04-04T08:25:00;17.25;;;10.25;;
57225;SDS011;43082;43.568;22.256;2023-04-04T08:27:25;15.75;;;9.60;;
57225;SDS011;43082;43.568;22.256;2023-04-04T08:29:51;15.20;;;9.48;;
57225;SDS011;43082;43.568;22.256;2023-04-04T08:32:16;14.70;;;7.80;;
57225;SDS011;43082;43.568;22.256;2023-04-04T08:34:42;12.55;;;6.80;;
57225;SDS011;43082;43.568;22.256;2023-04-04T08:37:08;16.15;;;9.52;;
57225;SDS011;43082;43.568;22.256;2023-04-04T08:39:33;11.60;;;6.72;;
57225;SDS011;43082;43.568;22.256;2023-04-04T08:42:02;15.75;;;9.38;;
57225;SDS011;43082;43.568;22.256;2023-04-04T08:44:29;14.25;;;8.43;;
57225;SDS011;43082;43.568;22.256;2023-04-04T08:46:57;14.05;;;7.68;;
57225;SDS011;43082;43.568;22.256;2023-04-04T08:49:23;9.35;;;5.40;;
57225;SDS011;43082;43.568;22.256;2023-04-04T08:51:51;13.95;;;9.20;;
57225;SDS011;43082;43.568;22.256;2023-04-04T08:54:21;10.95;;;6.93;;
57225;SDS011;43082;43.568;22.256;2023-04-04T08:56:46;32.80;;;26.42;;
57225;SDS011;43082;43.568;22.256;2023-04-04T08:59:12;14.38;;;10.32;;
57225;SDS011;43082;43.568;22.256;2023-04-04T09:01:39;12.77;;;9.43;;
57225;SDS011;43082;43.568;22.256;2023-04-04T09:04:05;19.25;;;17.13;;
57225;SDS011;43082;43.568;22.256;2023-04-04T09:06:32;14.98;;;8.55;;
57225;SDS011;43082;43.568;22.256;2023-04-04T09:08:58;9.02;;;6.00;;
57225;SDS011;43082;43.568;22.256;2023-04-04T09:11:25;8.48;;;5.18;;
57225;SDS011;43082;43.568;22.256;2023-04-04T09:13:52;12.07;;;8.75;;
57225;SDS011;43082;43.568;22.256;2023-04-04T09:16:19;14.82;;;10.35;;
57225;SDS011;43082;43.568;22.256;2023-04-04T09:18:44;13.43;;;10.10;;
57225;SDS011;43082;43.568;22.256;2023-04-04T09:21:10;13.05;;;10.57;;
57225;SDS011;43082;43.568;22.256;2023-04-04T09:23:36;12.27;;;7.10;;
57225;SDS011;43082;43.568;22.256;2023-04-04T09:26:02;10.85;;;6.40;;
57225;SDS011;43082;43.568;22.256;2023-04-04T09:28:27;16.90;;;10.23;;
57225;SDS011;43082;43.568;22.256;2023-04-04T09:30:53;13.88;;;7.38;;
57225;SDS011;43082;43.568;22.256;2023-04-04T09:33:19;9.57;;;5.47;;
57225;SDS011;43082;43.568;22.256;2023-04-04T09:35:50;8.18;;;4.82;;
57225;SDS011;43082;43.568;22.256;2023-04-04T09:38:22;12.63;;;7.55;;
57225;SDS011;43082;43.568;22.256;2023-04-04T09:40:48;13.48;;;8.15;;
57225;SDS011;43082;43.568;22.256;2023-04-04T09:43:13;10.30;;;6.53;;
57225;SDS011;43082;43.568;22.256;2023-04-04T09:45:40;10.15;;;5.22;;
57225;SDS011;43082;43.568;22.256;2023-04-04T09:48:08;9.27;;;5.40;;
57225;SDS011;43082;43.568;22.256;2023-04-04T09:50:34;11.57;;;6.50;;
57225;SDS011;43082;43.568;22.256;2023-04-04T09:53:01;20.27;;;12.80;;
57225;SDS011;43082;43.568;22.256;2023-04-04T09:55:36;16.67;;;10.10;;
57225;SDS011;43082;43.568;22.256;2023-04-04T09:58:09;13.20;;;8.05;;
57225;SDS011;43082;43.568;22.256;2023-04-04T10:00:39;13.73;;;7.30;;
57225;SDS011;43082;43.568;22.256;2023-04-04T10:03:06;14.25;;;9.20;;
57225;SDS011;43082;43.568;22.256;2023-04-04T10:05:32;11.32;;;7.28;;
57225;SDS011;43082;43.568;22.256;2023-04-04T10:07:57;11.05;;;6.40;;
57225;SDS011;43082;43.568;22.256;2023-04-04T10:10:23;15.40;;;9.20;;
57225;SDS011;43082;43.568;22.256;2023-04-04T10:12:51;11.45;;;7.53;;
57225;SDS011;43082;43.568;22.256;2023-04-04T10:15:16;9.95;;;5.95;;
57225;SDS011;43082;43.568;22.256;2023-04-04T10:17:42;12.15;;;6.68;;
57225;SDS011;43082;43.568;22.256;2023-04-04T10:20:08;29.02;;;23.23;;
57225;SDS011;43082;43.568;22.256;2023-04-04T10:22:35;29.85;;;24.20;;
57225;SDS011;43082;43.568;22.256;2023-04-04T10:25:02;22.40;;;17.88;;
57225;SDS011;43082;43.568;22.256;2023-04-04T10:27:29;15.63;;;9.93;;
57225;SDS011;43082;43.568;22.256;2023-04-04T10:29:55;11.05;;;6.55;;
57225;SDS011;43082;43.568;22.256;2023-04-04T10:32:32;9.82;;;5.60;;
57225;SDS011;43082;43.568;22.256;2023-04-04T10:35:02;8.70;;;4.85;;
57225;SDS011;43082;43.568;22.256;2023-04-04T10:37:31;11.00;;;7.45;;
57225;SDS011;43082;43.568;22.256;2023-04-04T10:42:43;8.63;;;3.80;;
57225;SDS011;43082;43.568;22.256;2023-04-04T10:45:09;10.35;;;6.07;;
57225;SDS011;43082;43.568;22.256;2023-04-04T10:47:37;10.98;;;6.60;;
57225;SDS011;43082;43.568;22.256;2023-04-04T10:50:03;16.00;;;10.05;;
57225;SDS011;43082;43.568;22.256;2023-04-04T10:52:35;13.57;;;8.65;;
57225;SDS011;43082;43.568;22.256;2023-04-04T10:55:04;13.88;;;9.60;;
57225;SDS011;43082;43.568;22.256;2023-04-04T10:57:32;10.40;;;6.60;;
57225;SDS011;43082;43.568;22.256;2023-04-04T11:00:09;13.23;;;7.85;;
57225;SDS011;43082;43.568;22.256;2023-04-04T11:05:17;11.90;;;6.10;;
57225;SDS011;43082;43.568;22.256;2023-04-04T11:07:47;11.13;;;6.82;;
57225;SDS011;43082;43.568;22.256;2023-04-04T11:10:22;14.25;;;9.82;;
57225;SDS011;43082;43.568;22.256;2023-04-04T11:12:53;13.10;;;8.55;;
57225;SDS011;43082;43.568;22.256;2023-04-04T11:15:20;10.88;;;6.80;;
57225;SDS011;43082;43.568;22.256;2023-04-04T11:20:16;15.40;;;9.38;;
57225;SDS011;43082;43.568;22.256;2023-04-04T11:22:48;13.03;;;8.80;;
57225;SDS011;43082;43.568;22.256;2023-04-04T11:27:49;13.73;;;9.70;;
57225;SDS011;43082;43.568;22.256;2023-04-04T11:30:18;13.15;;;9.40;;
57225;SDS011;43082;43.568;22.256;2023-04-04T11:32:46;9.25;;;5.22;;
57225;SDS011;43082;43.568;22.256;2023-04-04T11:35:13;9.32;;;5.72;;
57225;SDS011;43082;43.568;22.256;2023-04-04T11:37:57;11.02;;;7.32;;
57225;SDS011;43082;43.568;22.256;2023-04-04T11:40:33;11.75;;;6.75;;
57225;SDS011;43082;43.568;22.256;2023-04-04T11:43:00;8.80;;;5.40;;
57225;SDS011;43082;43.568;22.256;2023-04-04T11:45:30;14.15;;;8.75;;
57225;SDS011;43082;43.568;22.256;2023-04-04T11:47:58;35.90;;;14.60;;
57225;SDS011;43082;43.568;22.256;2023-04-04T11:50:25;14.65;;;8.38;;
57225;SDS011;43082;43.568;22.256;2023-04-04T11:52:50;8.85;;;5.32;;
57225;SDS011;43082;43.568;22.256;2023-04-04T11:55:18;13.95;;;9.43;;
57225;SDS011;43082;43.568;22.256;2023-04-04T11:57:46;11.57;;;7.88;;
57225;SDS011;43082;43.568;22.256;2023-04-04T12:00:26;10.20;;;6.53;;
57225;SDS011;43082;43.568;22.256;2023-04-04T12:02:54;8.48;;;5.45;;
57225;SDS011;43082;43.568;22.256;2023-04-04T12:05:19;11.85;;;7.25;;
57225;SDS011;43082;43.568;22.256;2023-04-04T12:07:46;14.00;;;9.32;;
57225;SDS011;43082;43.568;22.256;2023-04-04T12:10:12;10.60;;;6.88;;
57225;SDS011;43082;43.568;22.256;2023-04-04T12:12:37;11.88;;;7.40;;
57225;SDS011;43082;43.568;22.256;2023-04-04T12:15:05;13.15;;;9.75;;
57225;SDS011;43082;43.568;22.256;2023-04-04T12:17:32;16.23;;;11.85;;
57225;SDS011;43082;43.568;22.256;2023-04-04T12:19:58;14.18;;;9.73;;
57225;SDS011;43082;43.568;22.256;2023-04-04T12:22:24;15.85;;;11.07;;
57225;SDS011;43082;43.568;22.256;2023-04-04T12:24:49;48.28;;;38.85;;
57225;SDS011;43082;43.568;22.256;2023-04-04T12:27:14;20.27;;;13.93;;
57225;SDS011;43082;43.568;22.256;2023-04-04T12:29:40;23.20;;;13.70;;
57225;SDS011;43082;43.568;22.256;2023-04-04T12:32:07;23.33;;;12.70;;
57225;SDS011;43082;43.568;22.256;2023-04-04T12:34:34;21.58;;;13.73;;
57225;SDS011;43082;43.568;22.256;2023-04-04T12:37:07;17.52;;;12.20;;
57225;SDS011;43082;43.568;22.256;2023-04-04T12:39:34;16.35;;;10.65;;
57225;SDS011;43082;43.568;22.256;2023-04-04T12:42:04;25.73;;;17.13;;
57225;SDS011;43082;43.568;22.256;2023-04-04T12:44:40;26.15;;;17.80;;
57225;SDS011;43082;43.568;22.256;2023-04-04T12:47:09;39.10;;;30.35;;
57225;SDS011;43082;43.568;22.256;2023-04-04T12:49:43;32.55;;;25.95;;
57225;SDS011;43082;43.568;22.256;2023-04-04T12:52:19;27.10;;;21.88;;
57225;SDS011;43082;43.568;22.256;2023-04-04T12:54:45;34.47;;;29.30;;
57225;SDS011;43082;43.568;22.256;2023-04-04T12:57:16;19.30;;;14.88;;
57225;SDS011;43082;43.568;22.256;2023-04-04T12:59:46;13.25;;;9.80;;
57225;SDS011;43082;43.568;22.256;2023-04-04T13:02:12;23.33;;;15.45;;
57225;SDS011;43082;43.568;22.256;2023-04-04T13:04:39;17.85;;;12.13;;
57225;SDS011;43082;43.568;22.256;2023-04-04T13:07:05;16.35;;;12.68;;
57225;SDS011;43082;43.568;22.256;2023-04-04T13:09:54;20.00;;;13.38;;
57225;SDS011;43082;43.568;22.256;2023-04-04T13:12:21;14.85;;;10.20;;
57225;SDS011;43082;43.568;22.256;2023-04-04T13:14:54;14.07;;;8.77;;
57225;SDS011;43082;43.568;22.256;2023-04-04T13:17:49;16.73;;;11.30;;
57225;SDS011;43082;43.568;22.256;2023-04-04T13:20:14;13.75;;;9.20;;
57225;SDS011;43082;43.568;22.256;2023-04-04T13:22:40;12.85;;;8.48;;
57225;SDS011;43082;43.568;22.256;2023-04-04T13:25:07;12.57;;;7.82;;
57225;SDS011;43082;43.568;22.256;2023-04-04T13:27:33;12.18;;;7.35;;
57225;SDS011;43082;43.568;22.256;2023-04-04T13:29:59;14.32;;;9.70;;
57225;SDS011;43082;43.568;22.256;2023-04-04T13:32:25;19.05;;;12.10;;
57225;SDS011;43082;43.568;22.256;2023-04-04T13:34:50;18.92;;;14.02;;
57225;SDS011;43082;43.568;22.256;2023-04-04T13:37:16;17.13;;;11.48;;
57225;SDS011;43082;43.568;22.256;2023-04-04T13:39:41;13.77;;;9.25;;
57225;SDS011;43082;43.568;22.256;2023-04-04T13:42:07;18.85;;;11.90;;
57225;SDS011;43082;43.568;22.256;2023-04-04T13:44:32;12.90;;;8.95;;
57225;SDS011;43082;43.568;22.256;2023-04-04T13:46:57;13.45;;;10.32;;
57225;SDS011;43082;43.568;22.256;2023-04-04T13:49:23;16.45;;;11.90;;
57225;SDS011;43082;43.568;22.256;2023-04-04T13:51:48;11.93;;;7.97;;
57225;SDS011;43082;43.568;22.256;2023-04-04T13:54:14;13.65;;;6.28;;
57225;SDS011;43082;43.568;22.256;2023-04-04T13:56:39;13.55;;;9.48;;
57225;SDS011;43082;43.568;22.256;2023-04-04T13:59:05;12.85;;;7.88;;
57225;SDS011;43082;43.568;22.256;2023-04-04T14:01:30;17.52;;;9.65;;
57225;SDS011;43082;43.568;22.256;2023-04-04T14:03:56;18.60;;;13.48;;
57225;SDS011;43082;43.568;22.256;2023-04-04T14:06:21;30.00;;;20.55;;
57225;SDS011;43082;43.568;22.256;2023-04-04T14:08:47;104.50;;;60.00;;
57225;SDS011;43082;43.568;22.256;2023-04-04T14:11:13;21.50;;;14.07;;
57225;SDS011;43082;43.568;22.256;2023-04-04T14:13:39;98.43;;;58.92;;
57225;SDS011;43082;43.568;22.256;2023-04-04T14:16:05;16.77;;;11.15;;
57225;SDS011;43082;43.568;22.256;2023-04-04T14:18:31;26.92;;;20.10;;
57225;SDS011;43082;43.568;22.256;2023-04-04T14:20:58;20.90;;;14.90;;
57225;SDS011;43082;43.568;22.256;2023-04-04T14:23:23;27.83;;;20.38;;
57225;SDS011;43082;43.568;22.256;2023-04-04T14:25:49;20.13;;;13.32;;
57225;SDS011;43082;43.568;22.256;2023-04-04T14:28:15;25.85;;;20.50;;
57225;SDS011;43082;43.568;22.256;2023-04-04T14:30:40;19.25;;;13.38;;
57225;SDS011;43082;43.568;22.256;2023-04-04T14:33:06;19.27;;;13.73;;
57225;SDS011;43082;43.568;22.256;2023-04-04T14:35:31;49.83;;;36.00;;
57225;SDS011;43082;43.568;22.256;2023-04-04T14:37:57;53.05;;;37.47;;
57225;SDS011;43082;43.568;22.256;2023-04-04T14:40:22;66.47;;;48.17;;